logo
Search for airport 
image banner adimage banner adimage banner ad
image banner ad

75CL - Ronald Reagan Ucla Medical Center Helistop

Located in Los Angeles, United States

ICAO - 75CL, IATA -

Data provided by Airmate  

General information

Coordinates: N34°4'0" W118°26'47"
Elevation is 507 feet MSL.
 
View others Airports in California

Operational data

Special qualification required
Current time UTC:
Current local time:
Weather at : KSMO - Santa Monica Muni ( 6 km )
METAR: KSMO 042351Z 20005KT 10SM OVC017 16/12 A3007 RMK AO2 SLP183 60000 T01560122 10172 20156 56008
TAF: KSMO 042340Z 0500/0524 VRB03KT P6SM VCSH OVC020 FM050600 VRB03KT P6SM BKN015 FM051900 24007KT P6SM SCT025 BKN200
View NOTAMs / SUP AIP / TFR affecting this airport [VIEW]
Communications frequencies: [VIEW]

Runways:

Airport contact information

Address: Los Angeles United States

Satellite view of 75CL